Aeroporto :







RITROVATECI SU...

 
LOGIN :

Iscrizione | Disclaimer

   EN    FR    IT 

 









Sommario :    VFR   VFR Marginale   IFR   IFR Intensivo   IFR Molto Intensivo
Visibilità : 
Base nubi : 
>= 8 km
>= 3000ft
5 / 8 km
1000 / 3000 ft
1500m / 5 km
500 / 1000 ft
800 / 1500m
200 / 500 ft
< 800m
< 200 ft
Simboli :   Temporali  Nebbia  Neve Forte  Precipitazioni Forti  Vento > 20 kt






- Altitudine del aeroporto : 357 ft
- Codice IATA : YSJ


CYSJ - Saint John

ULTIMO METAR :
  • 250900Z 21002KT 15SM BCFG SKC 06/05 A3045 RMK SLP314

METARs OBSOLETI :
  • 250800Z 21002KT 15SM R05/3000VP6000FT/U BCFG SKC 05/05 A3044 RMK SLP313
  • 250700Z 00000KT 15SM BCFG SKC 05/05 A3045 RMK SLP313

TAF TAF CYSJ
Valido dal 25 a 06 ore il 25 a 18 ore UTC


250538Z 2506/2518 20005KT P6SM SKC
PROB40 2506/2512 1/2SM FG VV002
FM251200 20010KT P6SM FEW020 OVC040
TEMPO 2512/2516 OVC020
FM251600 20012KT P6SM -SHRA OVC020
TEMPO 2516/2518 3SM -DZ BR SCT008 OVC015 RMK NXT FCST BY 251200Z
FIR CZQM / America del Nord



MetMap, La meteo Aeronautica in un colpo d'occhio ! - Copyright ORBIFLY Dicembre 2007 - Disclaimer

ORBIFLY MET'MAP TEAM :

Programmazione e sviluppo : Alexandra Zaïnal
Concezione : Baudouin d'Aumeries
Aiuto per la programmazione : Marc-Olivier Méhu
Supporto tecnico e logistico : Manuel Goepfert
Aiuto per la traduzione : Arnaldo La Scala

Contatto : metmap@orbifly.com




FONTI E CREDITI :

   NOAA